Time;durP1;ratioP1;P1;durP2;ratioP2;P2;SDS_P1;SDS_P2;PMS_P1;PMS_P2;Temp;Humidity;BMP_temperature;BMP_pressure;BME280_temperature;BME280_humidity;BME280_pressure;Samples;Min_cycle;Max_cycle;Signal;HPM_P1;HPM_P2
2022/09/29 00:00:25;;;;;;;24.92;4.07;;;5.80;1.00;;;;;;5005800;28;20042;-64
2022/09/29 00:02:52;;;;;;;15.45;3.88;;;5.90;1.00;;;;;;5000603;28;20519;-64
2022/09/29 00:05:18;;;;;;;27.02;4.43;;;6.00;1.00;;;;;;4999866;28;20038;-65
2022/09/29 00:07:44;;;;;;;46.35;5.63;;;5.40;1.00;;;;;;4998092;28;20038;-65
2022/09/29 00:10:10;;;;;;;28.10;4.57;;;5.90;1.00;;;;;;5000436;28;20488;-64
2022/09/29 00:12:36;;;;;;;20.52;3.97;;;5.50;1.00;;;;;;4996906;28;20467;-65
2022/09/29 00:15:02;;;;;;;38.47;5.18;;;5.70;1.00;;;;;;4999381;28;20037;-65
2022/09/29 00:17:28;;;;;;;14.85;3.85;;;5.50;1.00;;;;;;4977890;28;20046;-65
2022/09/29 00:19:54;;;;;;;34.78;5.82;;;5.80;1.00;;;;;;4983597;28;20526;-64
2022/09/29 00:22:19;;;;;;;61.90;7.22;;;5.70;1.00;;;;;;4999634;28;20039;-64
2022/09/29 00:24:49;;;;;;;28.23;4.57;;;;;;;;;;4998478;28;20049;-64
2022/09/29 00:27:16;;;;;;;20.30;4.13;;;6.10;99.90;;;;;;5031648;22;20060;-61
2022/09/29 00:29:42;;;;;;;23.42;4.50;;;5.70;99.90;;;;;;5019226;28;20057;-62
2022/09/29 00:32:08;;;;;;;56.42;6.47;;;5.80;1.00;;;;;;5038809;28;20034;-62
2022/09/29 00:34:33;;;;;;;24.17;5.25;;;5.90;1.00;;;;;;5038137;28;20045;-62
2022/09/29 00:36:59;;;;;;;61.88;7.22;;;5.70;1.00;;;;;;5037366;28;20103;-62
2022/09/29 00:39:25;;;;;;;67.22;7.93;;;6.10;1.00;;;;;;5020493;28;20072;-62
2022/09/29 00:41:50;;;;;;;90.75;10.45;;;5.70;1.00;;;;;;5038392;28;20048;-62
2022/09/29 00:44:18;;;;;;;49.58;6.60;;;6.00;1.00;;;;;;5037963;28;20507;-62
2022/09/29 00:47:01;;;;;;;43.08;7.38;;;5.80;1.00;;;;;;5037616;28;20097;-62
2022/09/29 00:49:44;;;;;;;45.97;6.63;;;5.30;1.00;;;;;;5033895;28;20038;-62
2022/09/29 00:52:34;;;;;;;23.80;5.10;;;5.60;1.00;;;;;;5038740;28;20105;-62
2022/09/29 00:55:08;;;;;;;59.67;7.18;;;5.50;1.00;;;;;;5030762;28;20141;-62
2022/09/29 00:57:40;;;;;;;13.65;5.18;;;5.00;1.00;;;;;;5036845;28;20420;-62
2022/09/29 01:00:12;;;;;;;35.15;6.55;;;6.20;1.00;;;;;;5036987;28;20048;-62
2022/09/29 01:02:43;;;;;;;20.85;6.07;;;5.70;1.00;;;;;;5036498;28;20084;-61
2022/09/29 01:05:17;;;;;;;42.58;7.50;;;5.60;1.00;;;;;;5037832;28;20462;-61
2022/09/29 01:07:45;;;;;;;40.70;7.57;;;5.40;1.00;;;;;;5036859;28;20065;-62
2022/09/29 01:10:13;;;;;;;28.17;8.02;;;5.40;1.00;;;;;;5037118;28;20045;-62
2022/09/29 01:12:39;;;;;;;40.88;8.35;;;6.10;1.00;;;;;;5037292;28;20041;-62
2022/09/29 01:15:05;;;;;;;46.33;9.65;;;5.70;1.00;;;;;;5036993;28;20037;-62
2022/09/29 01:17:31;;;;;;;39.15;9.70;;;5.30;1.00;;;;;;5036132;28;20037;-62
2022/09/29 01:20:12;;;;;;;48.80;10.23;;;5.60;1.00;;;;;;5018405;28;20040;-62
2022/09/29 01:23:15;;;;;;;92.22;14.65;;;5.70;1.00;;;;;;5018711;28;20411;-62
2022/09/29 01:25:48;;;;;;;43.45;11.82;;;5.80;1.00;;;;;;5016400;28;20494;-62
2022/09/29 01:28:20;;;;;;;33.53;9.98;;;5.70;1.00;;;;;;5035563;28;20167;-62
2022/09/29 01:30:59;;;;;;;42.42;10.88;;;6.00;1.00;;;;;;5035393;28;20044;-62
2022/09/29 01:34:04;;;;;;;23.23;9.77;;;5.50;1.00;;;;;;5033960;28;20037;-62
2022/09/29 01:36:30;;;;;;;21.13;9.27;;;5.60;1.00;;;;;;5034901;28;20503;-61
2022/09/29 01:39:07;;;;;;;14.90;8.18;;;5.90;1.00;;;;;;5034033;28;20033;-62
2022/09/29 01:41:58;;;;;;;11.68;7.25;;;5.50;1.00;;;;;;5034097;28;20522;-61
2022/09/29 01:44:32;;;;;;;10.30;6.80;;;5.60;1.00;;;;;;5030072;28;20041;-61
2022/09/29 01:47:09;;;;;;;12.27;7.97;;;5.50;1.00;;;;;;5029379;28;20403;-62
2022/09/29 01:49:40;;;;;;;14.15;6.68;;;5.20;1.00;;;;;;5034071;28;20411;-62
2022/09/29 01:52:09;;;;;;;30.45;8.40;;;5.60;1.00;;;;;;5016699;28;20073;-62
2022/09/29 01:54:57;;;;;;;39.22;8.60;;;5.50;1.00;;;;;;5016458;28;20049;-62
2022/09/29 01:57:29;;;;;;;60.95;10.63;;;5.60;1.00;;;;;;5033465;28;20124;-62
2022/09/29 02:00:30;;;;;;;98.10;16.02;;;5.50;1.00;;;;;;5032488;28;20048;-62
2022/09/29 02:03:03;;;;;;;32.78;7.40;;;5.50;1.00;;;;;;5009441;28;20056;-62
2022/09/29 02:05:29;;;;;;;42.53;8.13;;;5.30;1.00;;;;;;5033607;28;20167;-62
2022/09/29 02:08:01;;;;;;;49.60;10.43;;;5.30;1.00;;;;;;5033005;28;20040;-62
2022/09/29 02:10:40;;;;;;;42.70;9.70;;;5.00;1.00;;;;;;5034138;28;20049;-62
2022/09/29 02:13:08;;;;;;;30.00;7.97;;;5.70;1.00;;;;;;5030397;28;20069;-62
2022/09/29 02:15:38;;;;;;;37.22;9.07;;;5.20;4.20;;;;;;5034136;28;20321;-61
2022/09/29 02:18:12;;;;;;;28.75;8.48;;;5.10;1.00;;;;;;5031248;28;20179;-61
2022/09/29 02:20:37;;;;;;;38.08;8.55;;;4.80;9.20;;;;;;5031814;28;20522;-61
2022/09/29 02:23:03;;;;;;;51.20;8.93;;;4.60;8.70;;;;;;5031159;28;20033;-61
2022/09/29 02:25:34;;;;;;;41.80;7.82;;;5.60;43.00;;;;;;5013890;28;20519;-61
2022/09/29 02:28:00;;;;;;;33.53;8.98;;;5.10;35.30;;;;;;5031418;28;20042;-62
2022/09/29 02:30:25;;;;;;;38.40;8.48;;;5.20;32.70;;;;;;5032355;28;20518;-62
2022/09/29 02:32:51;;;;;;;46.17;8.85;;;5.30;42.10;;;;;;5032476;28;20030;-62
2022/09/29 02:35:17;;;;;;;51.47;9.02;;;4.80;70.90;;;;;;5029487;28;20034;-62
2022/09/29 02:38:24;;;;;;;58.40;11.35;;;4.90;59.60;;;;;;5029339;28;20037;-62
2022/09/29 02:41:01;;;;;;;58.65;10.07;;;5.50;74.80;;;;;;5031510;28;20527;-62
2022/09/29 02:43:30;;;;;;;77.90;11.70;;;5.20;94.10;;;;;;5009929;28;20049;-62
2022/09/29 02:46:09;;;;;;;69.05;12.02;;;5.50;91.10;;;;;;5033637;28;20042;-62
2022/09/29 02:48:55;;;;;;;58.00;12.43;;;5.20;87.50;;;;;;5023768;28;20061;-61
2022/09/29 02:51:23;;;;;;;;;;;4.90;92.70;;;;;;5032526;28;20029;-62
2022/09/29 02:54:07;;;;;;;125.45;18.65;;;5.60;99.90;;;;;;5033462;28;19923;-62
2022/09/29 02:57:30;;;;;;;95.82;15.50;;;5.60;99.90;;;;;;5020598;28;20041;-62
2022/09/29 03:00:10;;;;;;;84.55;14.73;;;5.70;99.90;;;;;;4930253;29;20439;-62
2022/09/29 03:02:41;;;;;;;60.78;11.77;;;4.80;99.90;;;;;;4933473;29;20040;-61
2022/09/29 03:05:09;;;;;;;179.30;28.33;;;5.10;99.90;;;;;;4992161;28;20107;-62
2022/09/29 03:07:37;;;;;;;94.38;15.77;;;5.10;99.90;;;;;;5032493;28;20038;-62
2022/09/29 03:10:03;;;;;;;67.45;16.02;;;5.80;99.90;;;;;;5014992;28;20117;-61
2022/09/29 03:12:29;;;;;;;58.83;12.13;;;5.40;86.20;;;;;;5025766;28;20049;-61
2022/09/29 03:14:55;;;;;;;48.85;11.85;;;5.60;99.90;;;;;;5011324;28;20036;-61
2022/09/29 03:17:21;;;;;;;58.80;14.10;;;5.40;99.90;;;;;;5034701;28;20507;-62
2022/09/29 03:19:46;;;;;;;63.53;12.65;;;4.80;99.90;;;;;;5032925;28;20034;-62
2022/09/29 03:22:12;;;;;;;53.63;11.70;;;5.40;99.70;;;;;;5033613;28;20045;-62
2022/09/29 03:24:38;;;;;;;79.28;17.15;;;5.10;99.90;;;;;;5035577;28;20048;-61
2022/09/29 03:27:03;;;;;;;52.25;11.30;;;5.50;95.70;;;;;;5017424;28;20038;-61
2022/09/29 03:29:29;;;;;;;47.78;12.45;;;5.10;99.90;;;;;;5020594;28;20045;-61
2022/09/29 03:31:55;;;;;;;62.45;11.35;;;4.80;99.90;;;;;;5019989;28;20045;-61
2022/09/29 03:34:20;;;;;;;76.32;14.10;;;5.10;99.90;;;;;;5036850;28;20044;-61
2022/09/29 03:36:46;;;;;;;37.72;11.10;;;5.10;99.90;;;;;;5035878;28;20038;-61
2022/09/29 03:39:12;;;;;;;32.70;10.05;;;;;;;;;;5035788;28;20036;-62
2022/09/29 03:41:37;;;;;;;46.22;12.45;;;4.80;99.90;;;;;;5035802;28;20037;-62
2022/09/29 03:44:03;;;;;;;47.28;14.82;;;5.30;99.90;;;;;;5035734;28;20040;-62
2022/09/29 03:46:28;;;;;;;46.92;11.77;;;4.90;99.90;;;;;;5036025;28;20121;-61
2022/09/29 03:48:54;;;;;;;65.43;13.82;;;5.00;99.90;;;;;;5035243;28;20037;-62
2022/09/29 03:51:20;;;;;;;59.83;13.55;;;;;;;;;;5036627;28;20045;-61
2022/09/29 03:53:46;;;;;;;74.28;16.48;;;5.00;99.90;;;;;;5035773;28;20088;-61
2022/09/29 03:56:11;;;;;;;74.05;16.80;;;4.70;99.90;;;;;;5035186;28;20076;-62
2022/09/29 03:58:37;;;;;;;91.57;20.00;;;4.90;99.90;;;;;;5035567;28;20507;-61
2022/09/29 04:01:03;;;;;;;69.97;16.23;;;5.40;99.90;;;;;;5037213;28;20034;-62
2022/09/29 04:03:28;;;;;;;87.00;19.30;;;4.90;99.90;;;;;;5035705;28;20038;-62
2022/09/29 04:05:54;;;;;;;72.18;18.33;;;4.90;99.90;;;;;;5037438;28;20046;-61
2022/09/29 04:08:20;;;;;;;94.53;21.65;;;5.20;99.90;;;;;;5036144;28;20044;-61
2022/09/29 04:10:46;;;;;;;58.85;16.77;;;5.10;99.90;;;;;;5036167;28;20399;-62
2022/09/29 04:13:12;;;;;;;125.70;26.10;;;5.60;99.90;;;;;;5036290;28;20033;-62
2022/09/29 04:15:38;;;;;;;61.65;15.50;;;4.70;99.90;;;;;;5036693;28;20041;-61
2022/09/29 04:18:04;;;;;;;61.83;16.35;;;5.40;99.90;;;;;;5036157;28;20037;-61
2022/09/29 04:20:31;;;;;;;127.30;22.73;;;;;;;;;;5036781;28;20044;-61
2022/09/29 04:22:57;;;;;;;126.50;24.20;;;;;;;;;;5036661;28;20045;-61
2022/09/29 04:25:23;;;;;;;115.47;22.83;;;5.00;99.90;;;;;;5035796;28;20052;-62
2022/09/29 04:27:48;;;;;;;73.32;20.45;;;4.90;99.90;;;;;;5035221;28;20029;-61
2022/09/29 04:30:14;;;;;;;113.50;22.38;;;5.10;99.90;;;;;;5034505;28;20042;-61
2022/09/29 04:32:40;;;;;;;97.20;22.27;;;5.10;99.90;;;;;;5033832;28;20055;-60
2022/09/29 04:35:06;;;;;;;68.18;19.48;;;5.60;99.90;;;;;;5029900;28;20065;-61
2022/09/29 04:37:32;;;;;;;84.47;19.20;;;5.10;99.90;;;;;;5021750;28;20112;-61
2022/09/29 04:39:57;;;;;;;125.63;22.90;;;5.20;99.90;;;;;;5031161;28;20112;-61
2022/09/29 04:42:23;;;;;;;123.82;24.23;;;5.60;99.90;;;;;;5021184;28;20098;-61
2022/09/29 04:44:51;;;;;;;52.22;18.08;;;5.20;99.90;;;;;;5017545;28;20549;-61
2022/09/29 04:47:17;;;;;;;104.45;21.17;;;5.20;99.90;;;;;;4995887;28;20091;-61
2022/09/29 04:49:43;;;;;;;107.63;23.92;;;5.70;99.90;;;;;;5015777;28;20042;-60
2022/09/29 04:52:11;;;;;;;109.18;23.98;;;5.70;99.90;;;;;;5015894;28;20053;-61
2022/09/29 04:54:36;;;;;;;59.15;19.63;;;5.70;99.90;;;;;;5020517;28;20487;-61
2022/09/29 04:57:05;;;;;;;146.77;24.75;;;5.90;99.90;;;;;;5022874;28;20049;-61
2022/09/29 04:59:31;;;;;;;120.68;24.17;;;;;;;;;;5019203;28;20088;-61
2022/09/29 05:01:57;;;;;;;82.30;21.05;;;5.80;99.90;;;;;;5013096;28;20044;-61
2022/09/29 05:04:23;;;;;;;87.88;23.83;;;5.40;99.90;;;;;;5015731;28;20034;-61
2022/09/29 05:06:52;;;;;;;61.17;21.15;;;5.50;99.90;;;;;;5003902;28;20048;-61
2022/09/29 05:09:26;;;;;;;97.88;22.20;;;6.00;99.90;;;;;;5034992;28;20045;-62
2022/09/29 05:11:55;;;;;;;148.07;25.85;;;5.90;99.90;;;;;;5031005;28;20049;-62
2022/09/29 05:14:20;;;;;;;139.30;27.50;;;5.70;99.90;;;;;;5035284;28;20092;-61
2022/09/29 05:16:46;;;;;;;104.35;24.52;;;5.50;99.90;;;;;;5024702;28;20202;-62
2022/09/29 05:19:11;;;;;;;69.95;21.52;;;5.80;99.90;;;;;;5024931;28;20109;-62
2022/09/29 05:21:37;;;;;;;122.82;27.08;;;6.00;99.90;;;;;;5025376;28;20112;-62
2022/09/29 05:24:03;;;;;;;114.32;25.00;;;;;;;;;;5027805;28;20381;-61
2022/09/29 05:26:29;;;;;;;141.15;25.02;;;5.90;99.90;;;;;;5021610;28;20042;-62
2022/09/29 05:28:54;;;;;;;168.90;31.90;;;5.80;99.90;;;;;;5022426;28;20063;-62
2022/09/29 05:31:20;;;;;;;109.32;25.83;;;5.70;99.90;;;;;;5001849;28;20050;-61
2022/09/29 05:33:46;;;;;;;114.43;27.67;;;6.10;99.90;;;;;;5021083;28;20418;-62
2022/09/29 05:36:12;;;;;;;88.53;23.42;;;5.80;99.90;;;;;;5026409;28;20521;-62
2022/09/29 05:38:38;;;;;;;159.98;30.83;;;5.70;99.90;;;;;;5023126;28;20038;-62
2022/09/29 05:41:06;;;;;;;105.82;28.75;;;6.30;99.90;;;;;;5032024;28;20486;-62
2022/09/29 05:43:32;;;;;;;118.15;30.25;;;5.70;99.90;;;;;;5021568;28;20074;-62
2022/09/29 05:46:02;;;;;;;128.88;30.60;;;6.00;99.90;;;;;;5016085;28;20045;-61
2022/09/29 05:48:29;;;;;;;88.47;23.20;;;5.60;99.90;;;;;;5015106;28;20045;-62
2022/09/29 05:50:56;;;;;;;61.83;22.98;;;5.80;99.90;;;;;;5033141;28;20388;-62
2022/09/29 05:53:22;;;;;;;73.60;25.10;;;5.70;99.90;;;;;;5013419;28;20045;-62
2022/09/29 05:55:48;;;;;;;108.10;29.50;;;5.80;99.90;;;;;;5030992;28;20545;-62
2022/09/29 05:58:13;;;;;;;128.40;33.58;;;5.60;99.90;;;;;;5031013;28;20033;-62
2022/09/29 06:00:40;;;;;;;53.65;21.17;;;5.70;99.90;;;;;;5031020;28;20041;-62
2022/09/29 06:03:05;;;;;;;57.72;20.55;;;6.00;99.90;;;;;;5013364;28;20044;-62
2022/09/29 06:05:31;;;;;;;55.92;19.98;;;6.00;99.90;;;;;;5031652;28;20392;-61
2022/09/29 06:07:57;;;;;;;124.05;29.88;;;6.00;99.90;;;;;;5024245;28;20034;-61
2022/09/29 06:10:23;;;;;;;86.07;28.08;;;5.70;99.90;;;;;;5023693;28;20033;-61
2022/09/29 06:12:49;;;;;;;65.40;22.02;;;5.80;99.90;;;;;;5024264;28;20220;-62
2022/09/29 06:15:14;;;;;;;37.85;19.65;;;6.40;99.90;;;;;;5028612;28;20068;-62
2022/09/29 06:17:40;;;;;;;56.22;19.95;;;5.80;99.90;;;;;;5027523;28;20073;-61
2022/09/29 06:20:06;;;;;;;78.82;22.08;;;6.30;99.90;;;;;;5029901;28;20398;-62
2022/09/29 06:22:33;;;;;;;137.68;32.67;;;5.80;99.90;;;;;;5000509;28;20056;-61
2022/09/29 06:24:58;;;;;;;83.82;20.13;;;6.60;99.90;;;;;;5025023;28;20133;-62
2022/09/29 06:27:27;;;;;;;59.78;19.83;;;;;;;;;;5039127;22;20160;-88
2022/09/29 06:29:53;;;;;;;100.28;28.83;;;;;;;;;;4963612;28;20046;-88
2022/09/29 06:32:19;;;;;;;94.50;23.52;;;;;;;;;;5005273;28;20053;-88
2022/09/29 06:37:39;;;;;;;52.85;18.70;;;;;;;;;;5003899;28;20041;-88
2022/09/29 06:40:07;;;;;;;78.72;18.02;;;;;;;;;;4995813;28;20516;-87
2022/09/29 06:42:33;;;;;;;114.63;25.88;;;;;;;;;;5007222;28;20050;-88
2022/09/29 06:45:02;;;;;;;86.78;22.85;;;;;;;;;;4975097;28;20064;-88
2022/09/29 06:47:34;;;;;;;64.82;20.88;;;;;;;;;;4974223;28;20108;-88
2022/09/29 06:50:00;;;;;;;43.92;17.10;;;;;;;;;;5002856;28;20045;-87
2022/09/29 06:52:30;;;;;;;43.88;16.73;;;;;;;;;;5013851;28;20053;-86
2022/09/29 06:55:05;;;;;;;51.28;19.92;;;;;;;;;;5007723;28;20057;-88
2022/09/29 06:57:31;;;;;;;;;;;;;;;;;;5006514;28;20049;-87
2022/09/29 07:00:02;;;;;;;97.95;25.80;;;;;;;;;;5010529;28;19929;-89
2022/09/29 07:02:34;;;;;;;83.47;26.48;;;;;;;;;;5003208;28;20095;-85
2022/09/29 07:05:06;;;;;;;35.03;17.58;;;;;;;;;;5019622;28;20042;-87
2022/09/29 07:07:46;;;;;;;;;;;6.80;99.90;;;;;;4994998;28;20334;-86
2022/09/29 07:13:35;;;;;;;41.53;18.00;;;;;;;;;;4963240;28;20058;-88
2022/09/29 07:16:22;;;;;;;49.38;19.25;;;;;;;;;;4979250;28;20045;-87
2022/09/29 07:19:23;;;;;;;43.78;19.88;;;;;;;;;;4925242;29;20062;-87
2022/09/29 07:25:13;;;;;;;30.60;16.40;;;;;;;;;;4965624;28;20046;-87
2022/09/29 07:28:09;;;;;;;57.90;19.23;;;;;;;;;;4985170;28;20527;-87
2022/09/29 07:30:47;;;;;;;62.83;23.02;;;;;;;;;;4990366;28;20046;-87
2022/09/29 07:33:13;;;;;;;58.63;26.27;;;;;;;;;;4995875;28;20045;-86
2022/09/29 07:35:42;;;;;;;121.75;28.30;;;;;;;;;;4980321;28;20078;-85
2022/09/29 07:38:21;;;;;;;75.15;28.20;;;;;;;;;;4986248;28;20489;-87
2022/09/29 07:40:47;;;;;;;71.30;26.77;;;;;;;;;;4980868;28;20076;-88
2022/09/29 07:43:23;;;;;;;63.10;27.05;;;;;;;;;;4980216;28;20106;-88
2022/09/29 07:46:04;;;;;;;112.03;32.60;;;;;;;;;;4991963;28;20072;-88
2022/09/29 07:48:49;;;;;;;153.35;37.95;;;;;;;;;;4999911;28;20045;-88
2022/09/29 07:51:31;;;;;;;72.80;30.95;;;;;;;;;;4997659;28;20069;-87
2022/09/29 07:54:01;;;;;;;99.78;33.97;;;;;;;;;;4996088;28;20049;-86
2022/09/29 07:56:27;;;;;;;71.28;30.70;;;;;;;;;;5015361;28;20088;-86
2022/09/29 07:58:57;;;;;;;61.63;30.10;;;;;;;;;;4993224;28;20060;-87
2022/09/29 08:01:23;;;;;;;53.40;26.77;;;;;;;;;;4995690;28;20042;-88
2022/09/29 08:04:00;;;;;;;;;;;;;;;;;;;;;
2022/09/29 08:06:27;;;;;;;51.72;28.70;;;;;;;;;;5005435;28;20056;-87
2022/09/29 08:08:56;;;;;;;51.15;29.30;;;;;;;;;;4970737;28;20095;-88
2022/09/29 08:11:26;;;;;;;44.40;27.50;;;;;;;;;;5005617;28;20268;-88
2022/09/29 08:14:09;;;;;;;41.78;25.98;;;;;;;;;;4988331;28;20041;-85
2022/09/29 08:16:40;;;;;;;43.25;24.92;;;;;;;;;;4999608;28;20057;-89
2022/09/29 08:22:18;;;;;;;41.15;25.38;;;;;;;;;;4974498;28;20068;-88
2022/09/29 08:24:59;;;;;;;35.97;24.13;;;;;;;;;;4994271;28;20037;-88
2022/09/29 08:27:38;;;;;;;38.17;23.60;;;;;;;;;;4990836;28;20103;-87
2022/09/29 08:30:38;;;;;;;38.42;23.50;;;;;;;;;;5019987;28;20141;-88
2022/09/29 08:33:39;;;;;;;;;;;;;;;;;;;;;
2022/09/29 08:36:17;;;;;;;29.40;21.50;;;;;;;;;;4988580;28;20619;-86
2022/09/29 08:38:50;;;;;;;31.75;22.38;;;;;;;;;;4975652;28;20451;-88
2022/09/29 08:41:28;;;;;;;35.60;23.30;;;;;;;;;;4990123;28;20076;-88
2022/09/29 08:44:12;;;;;;;34.53;23.45;;;;;;;;;;4962353;28;20585;-89
2022/09/29 08:46:56;;;;;;;31.70;22.30;;;;;;;;;;4979595;28;20511;-89
2022/09/29 08:49:31;;;;;;;30.73;22.73;;;;;;;;;;4983797;28;20498;-89
2022/09/29 08:52:12;;;;;;;30.02;21.27;;;;;;;;;;4975812;28;20557;-89
2022/09/29 08:54:44;;;;;;;28.58;20.40;;;;;;;;;;4980309;28;20401;-88
2022/09/29 08:57:18;;;;;;;23.75;17.58;;;;;;;;;;4989155;28;20073;-89
2022/09/29 08:59:57;;;;;;;25.25;17.05;;;;;;;;;;4979581;28;20034;-89
2022/09/29 09:02:42;;;;;;;29.08;16.90;;;;;;;;;;4966668;28;20053;-90
2022/09/29 09:05:40;;;;;;;27.03;17.93;;;;;;;;;;4983372;28;20057;-89
2022/09/29 09:08:21;;;;;;;20.02;13.57;;;;;;;;;;4971643;28;20302;-90
2022/09/29 09:11:17;;;;;;;18.60;13.60;;;10.30;20.40;;;;;;5009251;28;20052;-89
2022/09/29 09:14:23;;;;;;;17.40;12.90;;;10.50;1.00;;;;;;4982222;28;20041;-88
2022/09/29 09:17:17;;;;;;;14.50;11.05;;;;;;;;;;4958035;28;20045;-89
2022/09/29 09:19:54;;;;;;;13.48;10.13;;;;;;;;;;4978949;28;20132;-89
2022/09/29 09:22:40;;;;;;;12.85;9.15;;;10.60;1.00;;;;;;4999059;28;20458;-90
2022/09/29 09:25:18;;;;;;;13.35;9.50;;;10.80;99.90;;;;;;5007706;28;20042;-87
2022/09/29 09:27:55;;;;;;;13.55;8.73;;;10.80;99.90;;;;;;4978702;28;20519;-86
2022/09/29 09:30:29;;;;;;;;;;;11.30;99.90;;;;;;4997143;28;20044;-88
2022/09/29 09:32:59;;;;;;;12.10;7.93;;;11.10;99.90;;;;;;4995769;28;20380;-87
2022/09/29 09:35:53;;;;;;;11.90;7.28;;;11.60;99.90;;;;;;5013282;28;20222;-88
2022/09/29 09:38:27;;;;;;;11.25;7.50;;;11.40;99.90;;;;;;4986255;28;20066;-88
2022/09/29 09:41:00;;;;;;;10.68;5.03;;;;;;;;;;4981639;28;20045;-87
2022/09/29 09:43:36;;;;;;;11.52;5.40;;;11.80;1.00;;;;;;4972215;28;20160;-89
2022/09/29 09:46:39;;;;;;;9.30;5.32;;;12.10;1.00;;;;;;5009418;28;20046;-86
2022/09/29 09:49:25;;;;;;;8.57;6.03;;;12.00;1.00;;;;;;5013975;28;20618;-88
2022/09/29 09:52:09;;;;;;;7.45;4.82;;;12.20;99.90;;;;;;4999214;28;20041;-88
2022/09/29 09:54:42;;;;;;;8.90;4.00;;;12.00;99.90;;;;;;5018887;28;20124;-87
2022/09/29 09:57:14;;;;;;;7.72;4.25;;;12.40;1.00;;;;;;5005168;28;20050;-89
2022/09/29 09:59:54;;;;;;;8.07;4.45;;;12.20;99.90;;;;;;4992859;28;20575;-88
2022/09/29 10:02:21;;;;;;;7.38;4.50;;;12.40;99.90;;;;;;5015587;28;20063;-89
2022/09/29 10:04:49;;;;;;;6.78;3.63;;;;;;;;;;4972924;28;20047;-89
2022/09/29 10:07:16;;;;;;;6.68;3.97;;;12.80;99.90;;;;;;4984132;28;20034;-88
2022/09/29 10:09:42;;;;;;;9.65;4.82;;;12.80;99.90;;;;;;4996124;28;20327;-87
2022/09/29 10:12:12;;;;;;;6.13;3.13;;;;;;;;;;4990957;28;20101;-88
2022/09/29 10:14:38;;;;;;;5.70;2.40;;;13.00;99.90;;;;;;5002580;28;20564;-90
2022/09/29 10:17:15;;;;;;;5.68;2.30;;;13.30;99.90;;;;;;4981854;28;20067;-89
2022/09/29 10:20:04;;;;;;;6.90;2.58;;;13.30;99.90;;;;;;5012715;28;20046;-89
2022/09/29 10:22:31;;;;;;;5.72;2.97;;;13.30;99.90;;;;;;4989589;28;20103;-89
2022/09/29 10:25:17;;;;;;;7.40;3.00;;;13.00;1.00;;;;;;5015246;28;20037;-86
2022/09/29 10:27:48;;;;;;;5.55;2.25;;;13.40;1.00;;;;;;4982193;28;20061;-88
2022/09/29 10:30:33;;;;;;;4.60;2.10;;;13.10;1.00;;;;;;4996740;28;20052;-88
2022/09/29 10:33:02;;;;;;;6.13;2.55;;;13.40;99.90;;;;;;5004495;28;20513;-88
2022/09/29 10:35:38;;;;;;;6.10;2.38;;;13.30;99.90;;;;;;4999141;28;20488;-86
2022/09/29 10:38:24;;;;;;;5.55;2.05;;;14.10;99.90;;;;;;5005357;28;20081;-88
2022/09/29 10:41:03;;;;;;;5.18;2.17;;;14.40;1.00;;;;;;5008941;28;20081;-89
2022/09/29 10:43:35;;;;;;;4.40;1.55;;;14.00;99.90;;;;;;4997107;28;20049;-87
2022/09/29 10:46:01;;;;;;;4.30;1.60;;;14.20;1.00;;;;;;4993503;28;20037;-88
2022/09/29 10:48:33;;;;;;;4.50;1.50;;;13.90;99.90;;;;;;5010710;28;20047;-85
2022/09/29 10:51:01;;;;;;;3.28;1.20;;;;;;;;;;4982900;28;20038;-88
2022/09/29 10:53:30;;;;;;;3.72;1.02;;;;;;;;;;5010951;28;20567;-89
2022/09/29 10:56:05;;;;;;;3.78;1.40;;;;;;;;;;4981017;28;20103;-88
2022/09/29 10:58:36;;;;;;;2.40;0.90;;;14.60;99.90;;;;;;4971165;28;20046;-89
2022/09/29 11:01:08;;;;;;;2.45;0.93;;;;;;;;;;4973212;28;20033;-89
2022/09/29 11:03:38;;;;;;;3.15;0.93;;;14.80;1.00;;;;;;4994202;28;20061;-88
2022/09/29 11:06:06;;;;;;;3.38;1.38;;;15.00;99.90;;;;;;4975612;28;20044;-86
2022/09/29 11:09:02;;;;;;;3.90;1.20;;;15.30;99.90;;;;;;4978532;28;20136;-88
2022/09/29 11:11:39;;;;;;;3.92;1.45;;;15.60;99.90;;;;;;4991011;28;20057;-89
2022/09/29 11:14:28;;;;;;;3.13;1.10;;;14.90;1.00;;;;;;5013879;28;20042;-87
2022/09/29 11:16:59;;;;;;;4.10;1.20;;;14.90;99.90;;;;;;4971758;28;20033;-91
2022/09/29 11:19:28;;;;;;;5.03;1.77;;;15.10;99.90;;;;;;4988830;28;20046;-91
2022/09/29 11:22:24;;;;;;;3.90;1.50;;;15.20;99.90;;;;;;4997742;28;20038;-87
2022/09/29 11:25:18;;;;;;;4.20;1.40;;;15.50;99.90;;;;;;4993303;28;20101;-88
2022/09/29 11:28:06;;;;;;;3.83;1.50;;;14.90;99.90;;;;;;4980356;28;20057;-87
2022/09/29 11:30:37;;;;;;;3.65;1.30;;;14.90;99.90;;;;;;5005072;28;20060;-90
2022/09/29 11:33:17;;;;;;;5.28;1.20;;;15.00;99.90;;;;;;4978560;28;20041;-90
2022/09/29 11:36:00;;;;;;;3.95;1.40;;;14.90;99.90;;;;;;5015646;28;20060;-89
2022/09/29 11:38:58;;;;;;;3.00;1.10;;;15.50;87.20;;;;;;4995776;28;20076;-89
2022/09/29 11:41:44;;;;;;;1.88;0.80;;;14.90;99.90;;;;;;4988042;28;20053;-88
2022/09/29 11:44:49;;;;;;;3.40;1.15;;;15.60;67.50;;;;;;4989135;28;20137;-88
2022/09/29 11:47:39;;;;;;;;;;;15.70;99.90;;;;;;4989416;28;20160;-88
2022/09/29 11:50:17;;;;;;;4.22;1.40;;;15.60;99.90;;;;;;4998585;28;19928;-89
2022/09/29 11:53:07;;;;;;;3.92;1.25;;;16.00;99.90;;;;;;4985959;28;20053;-87
2022/09/29 11:56:11;;;;;;;4.28;1.20;;;15.10;99.90;;;;;;5014609;28;20326;-90
2022/09/29 11:58:54;;;;;;;5.18;1.30;;;15.00;99.90;;;;;;4940992;28;20059;-88
2022/09/29 12:01:32;;;;;;;2.88;1.10;;;15.60;99.90;;;;;;5002664;28;20180;-88
2022/09/29 12:04:29;;;;;;;3.53;1.20;;;15.90;91.50;;;;;;4964134;28;20426;-89
2022/09/29 12:07:21;;;;;;;3.88;1.15;;;15.80;99.90;;;;;;4993897;28;20049;-88
2022/09/29 12:10:08;;;;;;;5.18;1.30;;;16.10;99.90;;;;;;4984761;28;20056;-87
2022/09/29 12:13:09;;;;;;;3.90;1.10;;;15.70;85.70;;;;;;4999826;28;20053;-89
2022/09/29 12:15:47;;;;;;;5.32;1.85;;;16.30;94.00;;;;;;4998671;28;20061;-88
2022/09/29 12:18:22;;;;;;;4.43;1.30;;;16.00;1.00;;;;;;4999155;28;20128;-88
2022/09/29 12:20:52;;;;;;;4.35;1.10;;;16.80;99.90;;;;;;4999178;28;20060;-88
2022/09/29 12:23:23;;;;;;;3.08;1.05;;;17.50;99.90;;;;;;4982671;28;20041;-88
2022/09/29 12:26:03;;;;;;;4.90;1.30;;;17.60;1.00;;;;;;4999534;28;20772;-88
2022/09/29 12:28:55;;;;;;;3.67;1.08;;;17.80;99.90;;;;;;5077372;23;20064;-63
2022/09/29 12:31:26;;;;;;;3.45;1.25;;;18.30;99.90;;;;;;5029495;28;20126;-62
2022/09/29 12:34:16;;;;;;;4.43;1.30;;;18.50;99.90;;;;;;5032521;28;20034;-62
2022/09/29 12:36:52;;;;;;;3.42;1.08;;;19.00;99.90;;;;;;5032553;28;20407;-63
2022/09/29 12:39:51;;;;;;;2.33;1.00;;;19.00;99.90;;;;;;5027560;28;20056;-63
2022/09/29 12:42:20;;;;;;;3.50;1.05;;;18.50;99.90;;;;;;5032542;28;20123;-62
2022/09/29 12:45:10;;;;;;;3.20;0.98;;;18.30;99.90;;;;;;5032210;28;20037;-63
2022/09/29 12:48:05;;;;;;;3.90;1.20;;;17.70;99.90;;;;;;4990774;28;20079;-63
2022/09/29 12:50:55;;;;;;;3.47;1.10;;;18.70;99.90;;;;;;5032213;28;20120;-63
2022/09/29 12:53:51;;;;;;;3.85;1.00;;;19.00;99.90;;;;;;5032271;28;20499;-63
2022/09/29 12:56:38;;;;;;;1.67;0.70;;;18.50;99.90;;;;;;4986503;28;20064;-62
2022/09/29 12:59:28;;;;;;;3.42;0.90;;;18.80;99.90;;;;;;5012367;28;20487;-62
2022/09/29 13:01:56;;;;;;;2.67;0.75;;;18.30;99.90;;;;;;5032386;28;20026;-63
2022/09/29 13:05:09;;;;;;;3.15;0.70;;;17.80;99.90;;;;;;5031577;28;20041;-63
2022/09/29 13:08:03;;;;;;;2.15;0.80;;;17.40;99.90;;;;;;4952058;28;20401;-62
2022/09/29 13:10:41;;;;;;;2.13;0.60;;;17.20;99.90;;;;;;5031877;28;20049;-62
2022/09/29 13:13:48;;;;;;;3.05;0.80;;;17.60;99.90;;;;;;5013843;28;20128;-63
2022/09/29 13:16:43;;;;;;;1.60;0.65;;;17.50;1.00;;;;;;5020759;28;20526;-62
2022/09/29 13:19:40;;;;;;;2.42;0.77;;;16.70;99.90;;;;;;5031379;28;20037;-63
2022/09/29 13:22:31;;;;;;;2.97;0.70;;;16.00;99.90;;;;;;5030917;28;20038;-62
2022/09/29 13:25:19;;;;;;;2.13;0.80;;;15.80;1.00;;;;;;5025204;28;20037;-62
2022/09/29 13:27:48;;;;;;;4.15;0.80;;;15.70;1.00;;;;;;5030691;28;20034;-62
2022/09/29 13:30:22;;;;;;;1.40;0.70;;;16.20;1.00;;;;;;5013329;28;20180;-63
2022/09/29 13:32:59;;;;;;;2.05;0.70;;;15.50;6.40;;;;;;5031668;28;20041;-63
2022/09/29 13:35:36;;;;;;;0.93;0.60;;;15.90;1.00;;;;;;5031353;28;20179;-63
2022/09/29 13:38:05;;;;;;;1.63;0.60;;;15.60;1.00;;;;;;5023641;28;20502;-63
2022/09/29 13:40:31;;;;;;;1.45;0.60;;;15.60;1.00;;;;;;5013316;28;20056;-63
2022/09/29 13:42:58;;;;;;;1.98;0.75;;;15.30;1.00;;;;;;5031376;28;20037;-62
2022/09/29 13:45:27;;;;;;;1.63;0.60;;;18.00;99.90;;;;;;5031099;28;20048;-62
2022/09/29 13:47:52;;;;;;;2.63;0.70;;;20.80;99.90;;;;;;5031116;28;20034;-63
2022/09/29 13:50:43;;;;;;;2.20;0.70;;;21.60;99.90;;;;;;5031120;28;20049;-61
2022/09/29 13:53:18;;;;;;;1.45;0.60;;;22.40;99.90;;;;;;5025366;28;20044;-63
2022/09/29 13:56:04;;;;;;;1.52;0.60;;;25.30;99.90;;;;;;5029765;28;20071;-63
2022/09/29 13:58:58;;;;;;;1.95;0.65;;;27.40;99.90;;;;;;5030686;28;20086;-63